Time;durP1;ratioP1;P1;durP2;ratioP2;P2;SDS_P1;SDS_P2;PMS_P1;PMS_P2;Temp;Humidity;BMP_temperature;BMP_pressure;BME280_temperature;BME280_humidity;BME280_pressure;Samples;Min_cycle;Max_cycle;Signal;HPM_P1;HPM_P2
2021/05/06 00:34:12;;;;;;;0.55;0.10;;;11.90;61.70;;;;;;5040326;28;20056;-68
2021/05/06 00:36:39;;;;;;;1.02;0.10;;;12.00;61.70;;;;;;5033032;28;20063;-68
2021/05/06 00:39:10;;;;;;;1.08;0.00;;;11.90;61.40;;;;;;5033054;28;20037;-68
2021/05/06 01:08:26;;;;;;;1.20;0.20;;;11.80;61.80;;;;;;5050615;28;20061;-69
2021/05/06 01:12:58;;;;;;;0.20;0.03;;;11.80;61.50;;;;;;5030828;28;20176;-68
2021/05/06 01:15:25;;;;;;;1.52;0.13;;;11.90;61.50;;;;;;5033891;28;20044;-68
2021/05/06 01:17:52;;;;;;;0.60;0.10;;;11.90;61.80;;;;;;5017002;28;20115;-68
2021/05/06 01:20:20;;;;;;;0.65;0.15;;;11.90;60.70;;;;;;5047041;28;20127;-68
2021/05/06 01:22:47;;;;;;;0.63;0.10;;;11.90;61.10;;;;;;5003112;28;20056;-68
2021/05/06 01:25:14;;;;;;;0.50;0.10;;;11.80;62.00;;;;;;5048330;28;20044;-68
2021/05/06 01:32:50;;;;;;;0.50;0.17;;;11.90;61.90;;;;;;5032012;28;20053;-68
2021/05/06 01:35:41;;;;;;;2.90;0.20;;;11.80;62.30;;;;;;5031056;28;20053;-68
2021/05/06 01:46:24;;;;;;;1.02;0.22;;;11.70;64.00;;;;;;5034390;28;20218;-68
2021/05/06 01:59:49;;;;;;;0.90;0.10;;;11.80;64.60;;;;;;5050235;28;20049;-68
2021/05/06 02:02:16;;;;;;;1.70;0.22;;;11.60;63.90;;;;;;5050438;28;20402;-68
2021/05/06 02:04:44;;;;;;;1.55;0.35;;;11.60;64.70;;;;;;5036623;28;20041;-68
2021/05/06 02:07:11;;;;;;;1.83;0.20;;;11.60;64.70;;;;;;5037199;28;20053;-68
2021/05/06 02:09:48;;;;;;;0.73;0.10;;;11.50;65.10;;;;;;5054053;28;20053;-68
2021/05/06 02:12:17;;;;;;;0.68;0.13;;;11.50;65.50;;;;;;5036777;28;20072;-68
2021/05/06 02:15:02;;;;;;;0.75;0.10;;;11.50;66.20;;;;;;5019065;28;20049;-69
2021/05/06 02:17:28;;;;;;;0.98;0.20;;;11.50;66.50;;;;;;5034020;28;20451;-68
2021/05/06 02:19:56;;;;;;;1.63;0.55;;;11.50;67.20;;;;;;5030979;28;20056;-68
2021/05/06 02:22:23;;;;;;;1.15;0.30;;;11.40;67.40;;;;;;5031577;28;20123;-68
2021/05/06 02:24:53;;;;;;;1.95;0.38;;;11.40;67.60;;;;;;5030178;28;20056;-68
2021/05/06 02:27:19;;;;;;;0.82;0.20;;;11.50;68.30;;;;;;5035803;28;20373;-68
2021/05/06 02:29:48;;;;;;;0.95;0.20;;;11.40;68.40;;;;;;5035924;28;20053;-68
2021/05/06 02:32:14;;;;;;;2.40;0.38;;;11.40;69.10;;;;;;5052967;28;20041;-68
2021/05/06 02:34:42;;;;;;;0.57;0.10;;;11.40;69.60;;;;;;5054086;28;20045;-68
2021/05/06 02:37:09;;;;;;;0.75;0.20;;;11.40;70.20;;;;;;5037163;28;20045;-68
2021/05/06 02:39:36;;;;;;;1.27;0.20;;;11.40;70.20;;;;;;5037324;28;20053;-68
2021/05/06 02:42:02;;;;;;;1.25;0.30;;;11.40;70.70;;;;;;5036602;28;20036;-68
2021/05/06 02:44:29;;;;;;;1.50;0.20;;;11.40;71.70;;;;;;5054343;28;20053;-69
2021/05/06 02:46:56;;;;;;;1.00;0.20;;;11.40;72.80;;;;;;5046492;28;20164;-68
2021/05/06 02:49:23;;;;;;;2.22;0.30;;;11.30;74.00;;;;;;5048640;28;20179;-68
2021/05/06 02:51:54;;;;;;;0.60;0.20;;;11.30;73.90;;;;;;5031435;28;20053;-68
2021/05/06 02:54:21;;;;;;;1.17;0.43;;;11.20;75.10;;;;;;5017694;28;20107;-68
2021/05/06 02:57:09;;;;;;;1.70;0.25;;;11.20;75.40;;;;;;5051764;28;20059;-68
2021/05/06 03:04:50;;;;;;;1.75;0.40;;;11.20;76.90;;;;;;5034252;28;20049;-68
2021/05/06 03:07:22;;;;;;;2.45;0.32;;;11.10;77.40;;;;;;5034425;28;20503;-68
2021/05/06 03:10:01;;;;;;;1.90;0.50;;;11.00;77.90;;;;;;5033354;28;20044;-68
2021/05/06 03:23:22;;;;;;;2.60;0.80;;;10.90;76.50;;;;;;5052521;28;20055;-68
2021/05/06 03:25:49;;;;;;;5.05;1.40;;;10.80;75.60;;;;;;5051649;28;20439;-68
2021/05/06 03:28:25;;;;;;;4.80;0.80;;;10.90;74.00;;;;;;5032641;28;20064;-68
2021/05/06 04:37:46;;;;;;;1.33;0.15;;;11.00;67.20;;;;;;5040812;28;20435;-68
2021/05/06 04:56:06;;;;;;;1.85;0.20;;;11.10;67.70;;;;;;5050534;28;20048;-68
2021/05/06 05:06:35;;;;;;;1.50;0.10;;;11.20;65.20;;;;;;5050052;28;20056;-68
2021/05/06 05:25:27;;;;;;;1.27;0.25;;;11.50;66.40;;;;;;4951497;28;20043;-68
2021/05/06 05:27:58;;;;;;;0.43;0.10;;;11.40;65.90;;;;;;4951351;28;20252;-68
2021/05/06 05:30:27;;;;;;;1.27;0.20;;;11.40;66.00;;;;;;4967104;28;20078;-68
2021/05/06 05:33:09;;;;;;;0.43;0.13;;;11.50;66.00;;;;;;4967892;28;20058;-68
2021/05/06 05:35:41;;;;;;;0.65;0.20;;;11.70;65.10;;;;;;4970078;28;20764;-68
2021/05/06 05:56:30;;;;;;;0.65;0.20;;;12.10;61.60;;;;;;5045005;28;20084;-68
2021/05/06 05:58:57;;;;;;;1.58;0.30;;;12.20;63.00;;;;;;5032397;28;20393;-68
2021/05/06 06:01:24;;;;;;;3.78;1.92;;;12.20;62.70;;;;;;5046241;28;20045;-68
2021/05/06 06:03:51;;;;;;;0.82;0.20;;;12.30;61.90;;;;;;5042147;28;20045;-65
2021/05/06 06:06:17;;;;;;;1.27;0.20;;;12.30;61.80;;;;;;5048591;28;20499;-65
2021/05/06 06:08:44;;;;;;;1.42;0.20;;;12.40;62.10;;;;;;5026696;28;20061;-65
2021/05/06 06:11:11;;;;;;;0.55;0.10;;;12.30;60.70;;;;;;5031943;28;20061;-65
2021/05/06 06:13:37;;;;;;;1.15;0.20;;;12.30;61.80;;;;;;5032179;28;20061;-65
2021/05/06 06:16:12;;;;;;;1.08;0.20;;;12.30;61.80;;;;;;5028199;28;20044;-65
2021/05/06 06:18:57;;;;;;;1.23;0.20;;;12.30;61.80;;;;;;5016012;28;20061;-65
2021/05/06 06:21:42;;;;;;;14.32;1.08;;;12.20;61.00;;;;;;5049532;28;20111;-70
2021/05/06 06:24:10;;;;;;;0.88;0.10;;;12.30;61.10;;;;;;5032595;28;20099;-71
2021/05/06 06:26:37;;;;;;;2.38;0.10;;;12.40;60.60;;;;;;5027367;28;20372;-71
2021/05/06 06:29:09;;;;;;;2.83;0.20;;;12.50;61.00;;;;;;5048267;28;20045;-70
2021/05/06 06:31:49;;;;;;;0.95;0.20;;;12.50;61.40;;;;;;5030047;28;20443;-71
2021/05/06 06:34:16;;;;;;;0.50;0.10;;;12.60;62.00;;;;;;5049203;28;20545;-71
2021/05/06 06:36:46;;;;;;;0.32;0.10;;;12.70;61.40;;;;;;5031482;28;20076;-71
2021/05/06 06:39:16;;;;;;;0.45;0.17;;;12.70;59.90;;;;;;5027686;28;20055;-71
2021/05/06 06:41:44;;;;;;;1.20;0.10;;;12.70;59.50;;;;;;5049535;28;20079;-71
2021/05/06 06:44:16;;;;;;;1.65;0.10;;;12.70;59.20;;;;;;5031611;28;20128;-71
2021/05/06 06:46:42;;;;;;;0.55;0.20;;;12.80;61.00;;;;;;5031794;28;20057;-71
2021/05/06 06:49:10;;;;;;;1.83;0.10;;;12.90;60.30;;;;;;5016610;28;20504;-71
2021/05/06 06:51:37;;;;;;;1.08;0.20;;;13.00;58.90;;;;;;5033652;28;20139;-71
2021/05/06 06:54:07;;;;;;;0.80;0.20;;;13.00;59.00;;;;;;5033300;28;20076;-71
2021/05/06 06:56:33;;;;;;;2.53;0.20;;;12.90;57.90;;;;;;5033031;28;20063;-70
2021/05/06 06:59:00;;;;;;;1.90;0.30;;;12.90;58.70;;;;;;5033654;28;20107;-70
2021/05/06 07:01:26;;;;;;;0.95;0.47;;;13.10;58.10;;;;;;5032660;28;20064;-70
2021/05/06 07:03:53;;;;;;;2.05;0.30;;;13.20;58.50;;;;;;5046668;28;20041;-70
2021/05/06 07:06:19;;;;;;;1.40;0.17;;;13.10;56.20;;;;;;5027867;28;20824;-70
2021/05/06 07:08:47;;;;;;;0.75;0.13;;;13.20;55.60;;;;;;5021837;28;20045;-71
2021/05/06 07:11:14;;;;;;;0.40;0.10;;;13.20;55.70;;;;;;5028894;28;20056;-71
2021/05/06 07:13:40;;;;;;;0.40;0.03;;;13.20;56.40;;;;;;5028507;28;20052;-70
2021/05/06 07:16:08;;;;;;;0.75;0.13;;;13.30;56.10;;;;;;5035345;28;20060;-68
2021/05/06 07:18:35;;;;;;;3.38;0.20;;;13.40;55.20;;;;;;5032372;28;20040;-68
2021/05/06 07:21:05;;;;;;;1.20;0.10;;;13.50;54.90;;;;;;5049868;28;20049;-67
2021/05/06 07:23:32;;;;;;;1.10;0.17;;;13.60;52.80;;;;;;5033327;28;20052;-68
2021/05/06 07:26:03;;;;;;;1.48;0.10;;;13.60;54.40;;;;;;5031821;28;20049;-67
2021/05/06 07:28:35;;;;;;;1.83;0.17;;;13.80;54.40;;;;;;5048780;28;20045;-68
2021/05/06 07:31:06;;;;;;;1.55;0.10;;;13.90;52.70;;;;;;5051028;28;20079;-68
2021/05/06 07:33:36;;;;;;;1.10;0.20;;;14.00;54.30;;;;;;5027214;28;20156;-68
2021/05/06 07:36:09;;;;;;;2.33;0.50;;;13.90;52.90;;;;;;5043607;28;20476;-68
2021/05/06 07:38:39;;;;;;;1.40;0.20;;;13.90;53.80;;;;;;5032583;28;20045;-68
2021/05/06 07:41:11;;;;;;;8.05;0.30;;;13.80;52.60;;;;;;5039839;28;20120;-68
2021/05/06 07:43:44;;;;;;;1.55;0.15;;;13.80;52.80;;;;;;5043629;28;20143;-69
2021/05/06 07:46:14;;;;;;;0.65;0.10;;;13.70;52.50;;;;;;5043602;28;20045;-69
2021/05/06 07:48:46;;;;;;;1.00;0.10;;;13.80;53.70;;;;;;5043258;28;20106;-70
2021/05/06 07:51:17;;;;;;;0.75;0.10;;;13.80;52.10;;;;;;5027078;28;20504;-69
2021/05/06 07:56:20;;;;;;;1.13;0.10;;;13.90;53.00;;;;;;5042449;28;20061;-70
2021/05/06 07:58:47;;;;;;;3.95;0.50;;;13.90;52.80;;;;;;5027106;28;22453;-69
2021/05/06 08:01:14;;;;;;;2.08;0.60;;;14.00;52.80;;;;;;5047256;28;20037;-69
2021/05/06 08:03:41;;;;;;;2.28;0.30;;;14.00;52.50;;;;;;5047201;28;20048;-69
2021/05/06 08:06:08;;;;;;;1.52;0.10;;;14.00;51.70;;;;;;5028820;28;20451;-69
2021/05/06 08:08:35;;;;;;;0.85;0.10;;;14.00;53.40;;;;;;5032025;28;20128;-69
2021/05/06 08:11:02;;;;;;;1.27;0.20;;;14.10;54.00;;;;;;5041679;28;20057;-69
2021/05/06 08:13:30;;;;;;;0.60;0.20;;;14.30;54.50;;;;;;5029557;28;20551;-70
2021/05/06 08:15:57;;;;;;;1.38;0.15;;;14.50;55.40;;;;;;5024027;28;20061;-71
2021/05/06 08:18:25;;;;;;;1.13;0.25;;;14.50;54.10;;;;;;5044154;28;20057;-70
2021/05/06 08:20:51;;;;;;;1.55;0.20;;;14.70;53.90;;;;;;5027179;28;20144;-72
2021/05/06 08:23:20;;;;;;;2.80;0.20;;;14.70;53.00;;;;;;5030998;28;20101;-70
2021/05/06 08:25:47;;;;;;;2.15;0.57;;;14.80;54.60;;;;;;5050498;28;20045;-70
2021/05/06 08:28:14;;;;;;;0.75;0.20;;;14.90;54.30;;;;;;5031889;28;20136;-70
2021/05/06 08:30:42;;;;;;;7.40;0.70;;;14.90;54.40;;;;;;5012086;28;20057;-71
2021/05/06 08:33:11;;;;;;;1.63;0.17;;;14.90;55.40;;;;;;5014402;28;20049;-71
2021/05/06 08:35:38;;;;;;;1.83;0.32;;;15.00;54.30;;;;;;5027030;28;20104;-70
2021/05/06 08:38:05;;;;;;;1.60;0.20;;;15.10;55.30;;;;;;5013283;28;20052;-70
2021/05/06 08:40:32;;;;;;;0.70;0.20;;;14.90;54.20;;;;;;5046048;28;20057;-70
2021/05/06 08:43:09;;;;;;;0.80;0.17;;;14.70;54.90;;;;;;5034746;28;20053;-70
2021/05/06 08:45:44;;;;;;;1.17;0.30;;;14.70;54.40;;;;;;5050181;28;20053;-71
2021/05/06 08:48:15;;;;;;;4.15;0.22;;;14.60;54.40;;;;;;5031217;28;20055;-71
2021/05/06 08:50:43;;;;;;;0.55;0.20;;;14.60;53.10;;;;;;5033246;28;20067;-70
2021/05/06 08:53:13;;;;;;;0.50;0.10;;;14.70;53.00;;;;;;5035133;28;20779;-70
2021/05/06 08:55:44;;;;;;;1.92;0.40;;;14.80;52.90;;;;;;5031289;28;20114;-69
2021/05/06 08:58:13;;;;;;;2.63;0.30;;;15.00;54.10;;;;;;5031287;28;20082;-70
2021/05/06 09:00:40;;;;;;;2.83;0.30;;;15.00;53.00;;;;;;5011027;28;20037;-70
2021/05/06 09:03:07;;;;;;;1.30;0.20;;;15.00;54.00;;;;;;5025451;28;20060;-70
2021/05/06 09:05:36;;;;;;;6.30;0.43;;;15.00;54.70;;;;;;5012301;28;20046;-70
2021/05/06 09:08:03;;;;;;;0.80;0.38;;;15.00;53.50;;;;;;5023101;28;20049;-70
2021/05/06 09:10:41;;;;;;;0.70;0.20;;;15.00;53.40;;;;;;5022685;28;20138;-70
2021/05/06 09:13:28;;;;;;;1.23;0.28;;;15.00;54.30;;;;;;5029790;28;20488;-70
2021/05/06 09:15:55;;;;;;;1.38;0.30;;;15.20;55.30;;;;;;5049333;28;20122;-70
2021/05/06 09:18:41;;;;;;;1.33;0.43;;;15.30;54.30;;;;;;5032100;28;20049;-70
2021/05/06 09:21:29;;;;;;;0.68;0.20;;;15.30;53.20;;;;;;5027347;28;20051;-70
2021/05/06 09:24:24;;;;;;;2.70;0.30;;;15.50;55.30;;;;;;5022507;28;20056;-70
2021/05/06 09:26:58;;;;;;;1.15;0.30;;;15.50;54.70;;;;;;5031319;28;20048;-70
2021/05/06 09:29:41;;;;;;;1.92;0.30;;;15.50;54.70;;;;;;5031480;28;20149;-70
2021/05/06 09:32:19;;;;;;;1.00;0.20;;;15.50;54.40;;;;;;5034458;28;20053;-70
2021/05/06 09:34:53;;;;;;;1.77;0.50;;;15.40;55.10;;;;;;5042534;28;20061;-70
2021/05/06 09:37:38;;;;;;;1.10;0.30;;;15.40;55.40;;;;;;5030157;28;20057;-70
2021/05/06 09:40:07;;;;;;;2.40;0.68;;;15.40;55.90;;;;;;5027076;28;20053;-70
2021/05/06 09:42:41;;;;;;;1.48;0.73;;;15.40;55.50;;;;;;5031600;28;20060;-70
2021/05/06 09:45:22;;;;;;;1.10;0.30;;;15.50;56.00;;;;;;5014727;28;20052;-70
2021/05/06 09:48:09;;;;;;;2.88;0.20;;;15.60;57.80;;;;;;5048893;28;20048;-70
2021/05/06 09:50:40;;;;;;;1.02;0.43;;;15.50;54.60;;;;;;5030219;28;20110;-70
2021/05/06 09:53:12;;;;;;;2.33;0.17;;;15.40;54.70;;;;;;5023372;28;20054;-70
2021/05/06 09:55:40;;;;;;;0.60;0.15;;;15.40;54.70;;;;;;5009660;28;20077;-69
2021/05/06 09:58:18;;;;;;;0.50;0.20;;;15.30;54.90;;;;;;5031269;28;20652;-70
2021/05/06 10:00:46;;;;;;;1.45;0.38;;;15.10;52.80;;;;;;5034637;28;20050;-70
2021/05/06 10:03:17;;;;;;;0.88;0.13;;;15.10;52.70;;;;;;5010595;28;20041;-70
2021/05/06 10:05:46;;;;;;;1.07;0.20;;;14.90;51.40;;;;;;5031347;28;20073;-70
2021/05/06 10:08:13;;;;;;;2.15;0.20;;;14.90;51.50;;;;;;5029613;28;20122;-70
2021/05/06 10:10:41;;;;;;;1.05;0.10;;;14.90;52.10;;;;;;5031660;28;20126;-70
2021/05/06 10:13:10;;;;;;;0.77;0.10;;;15.00;50.70;;;;;;5045191;28;20052;-70
2021/05/06 10:15:42;;;;;;;1.52;0.20;;;15.00;50.70;;;;;;5025060;28;20053;-70
2021/05/06 10:18:09;;;;;;;0.40;0.10;;;15.10;51.70;;;;;;5029523;28;20064;-70
2021/05/06 10:20:36;;;;;;;2.08;0.20;;;15.10;52.10;;;;;;5031096;28;20891;-70
2021/05/06 10:23:04;;;;;;;0.85;0.00;;;15.10;51.40;;;;;;5031044;28;20056;-70
2021/05/06 10:25:31;;;;;;;0.95;0.10;;;14.90;50.90;;;;;;5040801;28;20049;-70
2021/05/06 10:27:58;;;;;;;1.25;0.10;;;14.80;51.70;;;;;;5045450;28;20068;-70
2021/05/06 10:30:25;;;;;;;1.15;0.20;;;14.80;53.20;;;;;;5047952;28;20064;-70
2021/05/06 10:32:51;;;;;;;1.15;0.20;;;14.80;53.60;;;;;;5009549;28;20516;-70
2021/05/06 10:35:26;;;;;;;0.73;0.20;;;14.90;54.30;;;;;;5033798;28;20052;-70
2021/05/06 10:37:58;;;;;;;2.08;0.50;;;14.90;54.20;;;;;;5017934;28;20053;-70
2021/05/06 10:40:26;;;;;;;2.30;0.20;;;15.00;54.40;;;;;;5047615;28;20593;-70
2021/05/06 10:42:55;;;;;;;1.35;0.25;;;15.20;54.50;;;;;;5045285;28;20053;-70
2021/05/06 10:45:21;;;;;;;0.68;0.20;;;15.30;54.40;;;;;;5022530;28;20041;-70
2021/05/06 10:47:49;;;;;;;2.50;0.28;;;15.30;53.30;;;;;;5046057;28;20183;-70
2021/05/06 10:50:32;;;;;;;2.45;0.20;;;15.40;53.10;;;;;;5050203;28;20041;-70
2021/05/06 10:52:59;;;;;;;1.45;0.30;;;15.50;54.10;;;;;;5048529;28;20045;-70
2021/05/06 10:55:48;;;;;;;2.60;0.10;;;15.60;53.70;;;;;;5028600;28;20500;-70
2021/05/06 11:01:18;;;;;;;1.63;0.20;;;15.50;53.10;;;;;;5038988;28;20049;-70
2021/05/06 11:04:01;;;;;;;6.68;1.38;;;15.50;53.70;;;;;;5050078;28;20052;-70
2021/05/06 11:06:39;;;;;;;2.92;1.45;;;15.40;53.00;;;;;;5013061;28;20416;-70
2021/05/06 11:09:35;;;;;;;1.98;0.30;;;15.40;53.70;;;;;;5032668;28;20064;-70
2021/05/06 11:12:20;;;;;;;0.90;0.20;;;15.40;53.10;;;;;;5033562;28;20052;-69
2021/05/06 11:14:59;;;;;;;1.25;0.20;;;15.50;55.00;;;;;;5046037;28;20098;-70
2021/05/06 11:17:39;;;;;;;3.60;0.40;;;15.50;54.70;;;;;;5046833;28;20390;-70
2021/05/06 11:20:09;;;;;;;1.98;0.30;;;15.40;55.30;;;;;;5042471;28;20049;-70
2021/05/06 11:22:42;;;;;;;1.10;0.22;;;15.40;54.60;;;;;;5024341;28;20052;-70
2021/05/06 11:27:55;;;;;;;4.82;0.40;;;15.40;55.00;;;;;;5028956;28;20048;-69
2021/05/06 11:30:36;;;;;;;2.17;0.45;;;15.40;56.60;;;;;;5029734;28;20060;-70
2021/05/06 11:33:22;;;;;;;2.70;0.40;;;15.40;56.50;;;;;;5040330;28;20378;-69
2021/05/06 11:35:57;;;;;;;1.90;0.43;;;15.30;56.70;;;;;;5025877;28;20053;-70
2021/05/06 11:38:42;;;;;;;1.98;0.38;;;15.20;57.80;;;;;;5050330;28;20047;-70
2021/05/06 11:41:13;;;;;;;2.05;0.20;;;15.20;58.50;;;;;;5020965;28;20072;-70
2021/05/06 11:43:52;;;;;;;1.48;0.25;;;15.20;59.50;;;;;;5031729;28;20053;-70
2021/05/06 11:46:24;;;;;;;0.98;0.10;;;15.20;57.90;;;;;;5047078;28;20044;-70
2021/05/06 11:48:54;;;;;;;0.90;0.20;;;15.40;55.80;;;;;;5049339;28;20110;-69
2021/05/06 11:51:37;;;;;;;0.85;0.15;;;15.40;55.20;;;;;;5047966;28;20053;-69
2021/05/06 11:54:15;;;;;;;0.35;0.10;;;15.60;54.10;;;;;;5025615;28;20393;-70
2021/05/06 11:56:49;;;;;;;1.80;0.13;;;15.60;53.50;;;;;;5034425;28;20045;-69
2021/05/06 11:59:23;;;;;;;0.60;0.20;;;15.60;54.30;;;;;;5031196;28;20049;-70
2021/05/06 12:01:51;;;;;;;0.95;0.10;;;15.70;54.10;;;;;;5035725;28;20430;-70
2021/05/06 12:04:26;;;;;;;3.33;0.57;;;15.60;54.00;;;;;;5029066;28;22093;-69
2021/05/06 12:06:54;;;;;;;3.63;1.60;;;15.60;55.30;;;;;;5030480;28;20130;-69
2021/05/06 12:09:25;;;;;;;6.07;3.55;;;15.60;56.90;;;;;;5009602;28;20102;-69
2021/05/06 12:11:53;;;;;;;4.55;1.83;;;15.50;57.90;;;;;;5046783;28;20057;-69
2021/05/06 12:14:46;;;;;;;8.25;3.30;;;15.50;59.80;;;;;;5050043;28;20053;-69
2021/05/06 12:17:21;;;;;;;2.90;1.00;;;15.70;60.40;;;;;;5018967;28;20057;-69
2021/05/06 12:19:49;;;;;;;9.50;3.90;;;15.70;59.50;;;;;;5028732;28;20060;-69
2021/05/06 12:22:16;;;;;;;4.72;2.70;;;15.80;59.10;;;;;;5049505;28;20057;-67
2021/05/06 12:24:49;;;;;;;1.95;0.90;;;16.10;59.10;;;;;;5047140;28;20045;-67
2021/05/06 12:27:29;;;;;;;3.28;0.98;;;16.20;58.80;;;;;;5036202;28;20061;-67
2021/05/06 12:29:57;;;;;;;2.03;0.80;;;16.30;58.90;;;;;;5044830;28;20052;-67
2021/05/06 12:32:33;;;;;;;3.70;1.27;;;16.50;59.00;;;;;;5026935;28;20440;-68
2021/05/06 12:35:01;;;;;;;1.75;0.40;;;16.40;59.20;;;;;;5030007;28;20059;-67
2021/05/06 12:37:30;;;;;;;2.80;0.73;;;16.40;58.80;;;;;;5044897;28;20050;-68
2021/05/06 12:39:57;;;;;;;2.35;1.33;;;16.40;59.00;;;;;;5042971;28;20049;-67
2021/05/06 12:42:29;;;;;;;1.90;0.80;;;16.60;60.30;;;;;;5044316;28;20041;-67
2021/05/06 12:44:56;;;;;;;2.83;0.60;;;16.60;59.80;;;;;;5038979;28;20057;-68
2021/05/06 12:47:27;;;;;;;3.42;1.05;;;16.90;59.60;;;;;;5039921;28;20044;-67
2021/05/06 12:50:11;;;;;;;4.40;1.10;;;17.30;57.90;;;;;;5040564;28;21103;-67
2021/05/06 12:52:43;;;;;;;2.28;0.60;;;17.50;56.40;;;;;;5041819;28;20059;-67
2021/05/06 12:55:24;;;;;;;1.88;0.30;;;18.00;54.90;;;;;;5042405;28;20059;-67
2021/05/06 12:58:05;;;;;;;1.40;0.50;;;18.80;54.30;;;;;;5046801;28;20053;-67
2021/05/06 13:00:34;;;;;;;5.93;0.77;;;19.60;52.20;;;;;;5029911;28;20179;-67
2021/05/06 13:03:06;;;;;;;56.15;5.50;;;19.60;51.30;;;;;;5049969;28;20045;-71
2021/05/06 13:05:35;;;;;;;2.65;0.60;;;19.50;52.50;;;;;;5029887;28;20045;-71
2021/05/06 13:08:04;;;;;;;3.38;0.68;;;19.40;52.80;;;;;;5041234;28;20080;-70
2021/05/06 13:10:43;;;;;;;4.88;1.02;;;19.10;53.00;;;;;;5010653;28;20052;-70
2021/05/06 13:13:12;;;;;;;2.63;0.50;;;18.80;52.40;;;;;;5045483;28;20045;-70
2021/05/06 13:15:50;;;;;;;1.83;0.45;;;18.30;52.60;;;;;;5024055;28;20044;-72
2021/05/06 13:18:17;;;;;;;4.10;0.30;;;18.20;52.00;;;;;;5027196;28;20056;-71
2021/05/06 13:20:45;;;;;;;6.72;0.32;;;18.20;52.60;;;;;;5027114;28;20049;-71
2021/05/06 13:23:14;;;;;;;1.02;0.20;;;18.20;52.60;;;;;;5006293;28;20053;-71
2021/05/06 13:25:51;;;;;;;4.70;0.80;;;18.30;52.60;;;;;;5027419;28;20107;-70
2021/05/06 13:28:28;;;;;;;1.00;0.40;;;18.10;51.40;;;;;;5013206;28;20053;-71
2021/05/06 13:31:19;;;;;;;0.82;0.40;;;17.80;52.30;;;;;;5011491;28;20053;-71
2021/05/06 13:33:51;;;;;;;2.00;0.50;;;17.70;52.80;;;;;;4989716;28;20049;-71
2021/05/06 13:36:20;;;;;;;2.35;0.70;;;17.50;53.40;;;;;;5008908;28;20107;-70
2021/05/06 13:39:01;;;;;;;18.65;1.67;;;17.60;53.00;;;;;;5007560;28;20068;-71
2021/05/06 13:41:37;;;;;;;3.92;0.80;;;17.40;52.90;;;;;;5023720;28;20053;-70
2021/05/06 13:44:05;;;;;;;15.95;1.90;;;16.90;53.30;;;;;;5023992;28;20049;-70
2021/05/06 13:46:33;;;;;;;1.38;0.55;;;16.60;53.90;;;;;;4986664;28;20050;-70
2021/05/06 13:49:01;;;;;;;1.67;0.68;;;16.60;54.20;;;;;;5002512;28;20042;-70
2021/05/06 13:51:29;;;;;;;1.42;0.57;;;16.40;54.70;;;;;;5023884;28;20065;-71
2021/05/06 13:53:56;;;;;;;7.88;1.60;;;16.40;54.60;;;;;;5027990;28;20876;-70
2021/05/06 13:56:22;;;;;;;5.13;1.83;;;16.50;54.50;;;;;;5024580;28;20052;-71
2021/05/06 13:58:49;;;;;;;4.05;0.63;;;16.70;55.10;;;;;;4998105;28;20431;-71
2021/05/06 14:01:17;;;;;;;26.63;4.13;;;16.80;54.40;;;;;;5014479;28;20053;-71
2021/05/06 14:03:44;;;;;;;2.97;0.63;;;16.80;53.60;;;;;;5015554;28;20053;-71
2021/05/06 14:06:10;;;;;;;1.10;0.55;;;17.10;53.30;;;;;;5032750;28;20056;-71
2021/05/06 14:08:37;;;;;;;2.25;0.40;;;17.20;53.90;;;;;;5032005;28;20088;-71
2021/05/06 14:11:04;;;;;;;6.80;1.15;;;17.10;53.30;;;;;;5011767;28;20053;-71
2021/05/06 14:13:32;;;;;;;4.05;0.65;;;16.90;52.60;;;;;;5015465;28;20103;-70
2021/05/06 14:16:00;;;;;;;3.40;1.10;;;16.50;52.40;;;;;;5035232;28;20060;-69
2021/05/06 14:18:28;;;;;;;1.77;0.20;;;16.30;52.90;;;;;;5008965;28;20050;-69
2021/05/06 14:21:01;;;;;;;1.45;0.30;;;16.30;53.90;;;;;;5048454;28;20049;-69
2021/05/06 14:23:28;;;;;;;3.25;0.90;;;16.30;52.50;;;;;;5031151;28;20059;-68
2021/05/06 14:25:55;;;;;;;6.03;2.08;;;16.10;52.80;;;;;;5050306;28;20083;-69
2021/05/06 14:28:22;;;;;;;1.67;0.57;;;16.60;54.00;;;;;;5034243;28;20064;-69
2021/05/06 14:30:48;;;;;;;1.98;0.88;;;17.50;51.80;;;;;;5034981;28;20107;-68
2021/05/06 14:33:15;;;;;;;1.30;0.40;;;18.00;50.10;;;;;;5034040;28;20049;-68
2021/05/06 14:35:41;;;;;;;0.43;0.10;;;18.10;49.80;;;;;;5018238;28;20436;-68
2021/05/06 14:38:09;;;;;;;1.48;0.20;;;17.80;49.60;;;;;;5049543;28;20040;-68
2021/05/06 14:40:39;;;;;;;0.80;0.17;;;17.80;50.20;;;;;;5052356;28;20068;-68
2021/05/06 14:43:07;;;;;;;1.25;0.10;;;17.50;49.70;;;;;;5052320;28;20072;-68
2021/05/06 14:45:36;;;;;;;0.52;0.10;;;17.30;50.10;;;;;;5048592;28;20056;-68
2021/05/06 14:48:03;;;;;;;0.50;0.10;;;17.40;49.20;;;;;;5043160;28;20048;-70
2021/05/06 14:50:31;;;;;;;1.00;0.30;;;17.80;47.20;;;;;;5018295;28;20052;-68
2021/05/06 14:52:58;;;;;;;1.58;0.20;;;18.10;45.50;;;;;;5051705;28;20084;-68
2021/05/06 14:55:26;;;;;;;0.90;0.20;;;18.00;46.30;;;;;;5040252;28;20495;-68
2021/05/06 14:57:52;;;;;;;2.50;0.30;;;17.90;47.80;;;;;;5046454;28;20049;-68
2021/05/06 15:00:21;;;;;;;1.42;0.43;;;17.50;48.30;;;;;;5050034;28;20052;-68
2021/05/06 15:02:48;;;;;;;0.40;0.20;;;17.30;49.60;;;;;;5013475;28;20049;-68
2021/05/06 15:05:17;;;;;;;3.00;0.40;;;17.00;50.80;;;;;;5029696;28;20072;-68
2021/05/06 15:07:44;;;;;;;2.58;0.30;;;16.90;51.00;;;;;;5031087;28;20049;-68
2021/05/06 15:10:11;;;;;;;1.23;0.08;;;17.00;50.20;;;;;;5030767;28;20061;-68
2021/05/06 15:12:38;;;;;;;1.98;0.10;;;17.30;47.50;;;;;;5051598;28;20069;-68
2021/05/06 15:15:05;;;;;;;0.47;0.20;;;18.00;48.70;;;;;;5043946;28;20040;-68
2021/05/06 15:17:32;;;;;;;2.35;0.40;;;18.60;46.20;;;;;;5043970;28;20131;-68
2021/05/06 15:19:58;;;;;;;2.80;0.10;;;19.20;44.80;;;;;;5033331;28;20717;-68
2021/05/06 15:22:25;;;;;;;1.05;0.10;;;19.90;44.20;;;;;;4981642;28;20418;-69
2021/05/06 15:24:52;;;;;;;3.78;1.20;;;20.00;41.50;;;;;;5028756;28;20561;-68
2021/05/06 15:27:19;;;;;;;1.50;0.40;;;19.60;41.10;;;;;;5030958;28;20057;-68
2021/05/06 15:29:48;;;;;;;1.05;0.10;;;19.10;42.20;;;;;;5013335;28;20057;-68
2021/05/06 15:32:14;;;;;;;1.58;0.10;;;19.70;42.50;;;;;;5012659;28;20509;-68
2021/05/06 15:34:41;;;;;;;8.20;0.30;;;20.10;40.90;;;;;;5025927;28;20062;-68
2021/05/06 15:37:08;;;;;;;1.35;0.15;;;19.60;40.40;;;;;;5028242;28;20111;-68
2021/05/06 15:39:36;;;;;;;1.60;0.30;;;18.60;41.60;;;;;;5011580;28;20059;-68
2021/05/06 15:42:03;;;;;;;2.33;0.10;;;18.20;42.10;;;;;;5032875;28;20132;-68
2021/05/06 15:44:30;;;;;;;1.15;0.10;;;18.10;42.30;;;;;;5027254;28;20426;-68
2021/05/06 15:47:03;;;;;;;1.30;0.20;;;17.60;43.70;;;;;;5006344;28;20077;-68
2021/05/06 15:49:35;;;;;;;3.13;0.35;;;17.60;44.70;;;;;;5030511;28;20050;-68
2021/05/06 15:52:03;;;;;;;1.27;0.22;;;17.30;45.30;;;;;;5030806;28;20107;-68
2021/05/06 15:54:31;;;;;;;2.80;0.10;;;17.10;46.00;;;;;;4996434;28;20120;-68
2021/05/06 15:56:57;;;;;;;3.42;0.65;;;16.60;45.90;;;;;;5030631;28;20042;-67
2021/05/06 15:59:25;;;;;;;0.30;0.20;;;16.30;48.10;;;;;;5008031;28;20050;-67
2021/05/06 16:01:53;;;;;;;1.60;0.45;;;16.30;48.80;;;;;;5021518;28;20058;-67
2021/05/06 16:04:29;;;;;;;2.08;0.20;;;16.40;48.30;;;;;;5027323;28;20071;-67
2021/05/06 16:06:56;;;;;;;1.02;0.10;;;16.80;47.70;;;;;;5009080;28;20099;-68
2021/05/06 16:09:23;;;;;;;1.85;0.20;;;17.30;46.80;;;;;;5029608;28;20067;-68
2021/05/06 16:11:51;;;;;;;4.15;0.30;;;17.60;46.50;;;;;;5029061;28;20060;-68
2021/05/06 16:14:19;;;;;;;1.08;0.43;;;17.60;47.10;;;;;;5024202;28;20068;-68
2021/05/06 16:16:46;;;;;;;1.13;0.20;;;18.00;45.60;;;;;;5028190;28;20053;-68
2021/05/06 16:19:15;;;;;;;1.90;0.32;;;18.60;44.30;;;;;;5036021;28;20123;-68
2021/05/06 16:21:41;;;;;;;2.28;0.50;;;18.60;43.80;;;;;;5045757;28;20056;-68
2021/05/06 16:24:09;;;;;;;2.78;0.40;;;18.50;44.10;;;;;;5050279;28;20401;-68
2021/05/06 16:26:36;;;;;;;0.88;0.30;;;18.10;44.30;;;;;;5044457;28;20404;-67
2021/05/06 16:29:02;;;;;;;1.98;0.38;;;18.20;45.00;;;;;;5031624;28;20056;-68
2021/05/06 16:31:29;;;;;;;1.35;0.25;;;18.30;44.10;;;;;;5025252;28;20056;-68
2021/05/06 16:34:01;;;;;;;0.88;0.30;;;18.70;44.10;;;;;;5044580;28;20152;-68
2021/05/06 16:36:41;;;;;;;1.65;0.38;;;18.50;44.10;;;;;;5042866;28;20064;-68
2021/05/06 16:41:52;;;;;;;3.90;0.30;;;17.60;45.00;;;;;;5042214;28;20492;-68
2021/05/06 16:44:29;;;;;;;7.97;1.33;;;17.20;45.90;;;;;;5037530;28;20205;-68
2021/05/06 16:46:59;;;;;;;1.98;0.32;;;17.20;46.30;;;;;;5043412;28;20457;-68
2021/05/06 16:49:28;;;;;;;2.63;0.35;;;17.10;45.70;;;;;;5040714;28;20063;-68
2021/05/06 16:51:55;;;;;;;5.43;0.47;;;17.10;45.70;;;;;;5026973;28;20076;-68
2021/05/06 16:54:23;;;;;;;2.35;0.20;;;17.00;45.70;;;;;;5049309;28;20076;-68
2021/05/06 16:56:56;;;;;;;2.22;0.30;;;16.70;46.80;;;;;;5049874;28;20669;-68
2021/05/06 16:59:23;;;;;;;3.47;0.20;;;16.70;46.80;;;;;;5042823;28;20534;-68
2021/05/06 17:01:50;;;;;;;1.58;0.10;;;16.60;46.20;;;;;;5043454;28;20046;-68